createdAt,value
2023-03-02T00:00:48.289Z,8.54
2023-03-02T00:03:18.359Z,8.46
2023-03-02T00:06:31.999Z,8.52
2023-03-02T00:09:03.180Z,8.54
2023-03-02T00:11:33.898Z,8.60
2023-03-02T00:14:05.421Z,8.53
2023-03-02T00:16:34.224Z,8.63
2023-03-02T00:19:04.840Z,8.51
2023-03-02T00:21:33.993Z,8.55
2023-03-02T00:24:02.440Z,8.47
2023-03-02T00:26:34.713Z,8.53
2023-03-02T00:29:06.716Z,8.58
2023-03-02T00:31:35.885Z,8.59
2023-03-02T00:34:06.784Z,8.67
2023-03-02T00:36:35.185Z,8.69
2023-03-02T00:39:05.204Z,8.76
2023-03-02T00:41:33.936Z,8.74
2023-03-02T00:44:02.512Z,8.76
2023-03-02T00:46:32.989Z,8.62
2023-03-02T00:49:01.305Z,8.49
2023-03-02T00:51:29.954Z,8.50
2023-03-02T00:54:03.494Z,8.49
2023-03-02T00:56:33.423Z,8.53
2023-03-02T00:59:07.378Z,8.58
2023-03-02T01:01:38.353Z,8.48
2023-03-02T01:04:08.777Z,8.42
2023-03-02T01:06:47.536Z,8.36
2023-03-02T01:09:16.667Z,8.45
2023-03-02T01:11:45.337Z,8.51
2023-03-02T01:14:13.896Z,8.50
2023-03-02T01:16:44.217Z,8.38
2023-03-02T01:19:13.170Z,8.36
2023-03-02T01:21:41.958Z,8.26
2023-03-02T01:24:11.400Z,8.32
2023-03-02T01:26:40.050Z,8.37
2023-03-02T01:29:08.838Z,8.35
2023-03-02T01:31:37.399Z,8.35
2023-03-02T01:34:11.604Z,8.31
2023-03-02T01:36:42.065Z,8.45
2023-03-02T01:39:11.457Z,8.31
2023-03-02T01:41:40.319Z,8.47
2023-03-02T01:44:26.463Z,8.53
2023-03-02T01:46:54.955Z,8.55
2023-03-02T01:49:26.365Z,8.53
2023-03-02T01:52:00.802Z,8.47
2023-03-02T01:54:29.504Z,8.38
2023-03-02T01:57:04.752Z,8.33
2023-03-02T01:59:37.491Z,8.35
2023-03-02T02:02:08.949Z,8.36
2023-03-02T02:04:43.369Z,8.43
2023-03-02T02:07:12.225Z,8.46
2023-03-02T02:09:45.415Z,8.52
2023-03-02T02:12:16.417Z,8.45
2023-03-02T02:15:23.564Z,8.60
2023-03-02T02:17:58.547Z,8.44
2023-03-02T02:20:37.676Z,8.48
2023-03-02T02:23:27.107Z,8.51
2023-03-02T02:26:10.822Z,8.48
2023-03-02T02:28:43.316Z,8.50
2023-03-02T02:31:16.433Z,8.33
2023-03-02T02:33:46.680Z,8.45
2023-03-02T02:36:21.404Z,8.23
2023-03-02T02:38:54.921Z,8.17
2023-03-02T02:41:29.945Z,8.18
2023-03-02T02:43:58.530Z,8.23
2023-03-02T02:46:28.133Z,8.26
2023-03-02T02:48:59.576Z,8.31
2023-03-02T02:51:30.421Z,8.33
2023-03-02T02:54:00.809Z,8.32
2023-03-02T02:56:37.893Z,8.25
2023-03-02T02:59:16.261Z,8.27
2023-03-02T03:01:45.747Z,8.22
2023-03-02T03:04:19.498Z,8.27
2023-03-02T03:06:54.943Z,8.29
2023-03-02T03:09:24.445Z,8.26
2023-03-02T03:11:57.401Z,8.36
2023-03-02T03:14:30.409Z,8.43
2023-03-02T03:16:59.540Z,8.48
2023-03-02T03:19:29.890Z,8.47
2023-03-02T03:22:01.847Z,8.49
2023-03-02T03:24:36.068Z,8.47
2023-03-02T03:27:09.732Z,8.52
2023-03-02T03:29:44.088Z,8.46
2023-03-02T03:32:14.229Z,8.38
2023-03-02T03:34:42.676Z,8.26
2023-03-02T03:37:20.610Z,8.25
2023-03-02T03:39:49.495Z,8.16
2023-03-02T03:42:20.678Z,8.18
2023-03-02T03:44:49.405Z,8.18
2023-03-02T03:47:18.500Z,8.05
2023-03-02T03:49:47.078Z,8.00
2023-03-02T03:52:15.409Z,8.02
2023-03-02T03:54:43.862Z,8.08
2023-03-02T03:57:12.246Z,8.07
2023-03-02T03:59:42.714Z,8.10
2023-03-02T04:02:12.073Z,8.09
2023-03-02T04:04:43.406Z,7.96
2023-03-02T04:07:15.865Z,7.99
2023-03-02T04:09:45.599Z,7.99
2023-03-02T04:12:15.622Z,7.98
2023-03-02T04:14:55.225Z,7.97
2023-03-02T04:17:23.642Z,8.04
2023-03-02T04:19:52.599Z,8.08
2023-03-02T04:22:23.169Z,8.07
2023-03-02T04:24:51.903Z,8.06
2023-03-02T04:27:21.029Z,8.05
2023-03-02T04:29:49.451Z,7.99
2023-03-02T04:32:18.979Z,7.99
2023-03-02T04:34:53.272Z,7.93
2023-03-02T04:37:22.042Z,7.92
2023-03-02T04:39:52.790Z,7.81
2023-03-02T04:42:22.902Z,7.81
2023-03-02T04:44:51.802Z,7.71
2023-03-02T04:47:21.366Z,7.76
2023-03-02T04:49:50.861Z,7.80
2023-03-02T04:52:18.881Z,7.79
2023-03-02T04:54:47.330Z,7.80
2023-03-02T04:57:15.800Z,7.81
2023-03-02T04:59:44.668Z,7.70
2023-03-02T05:02:13.173Z,7.71
2023-03-02T05:04:42.956Z,7.72
2023-03-02T05:07:11.361Z,7.78
2023-03-02T05:09:39.449Z,7.76
2023-03-02T05:12:08.685Z,7.84
2023-03-02T05:14:36.922Z,7.87
2023-03-02T05:17:05.517Z,7.93
2023-03-02T05:19:34.395Z,7.93
2023-03-02T05:22:06.050Z,7.81
2023-03-02T05:24:35.884Z,7.81
2023-03-02T05:27:05.207Z,7.71
2023-03-02T05:29:33.791Z,7.65
2023-03-02T05:32:02.668Z,7.59
2023-03-02T05:34:31.809Z,7.57
2023-03-02T05:37:00.376Z,7.54
2023-03-02T05:39:30.229Z,7.52
2023-03-02T05:41:59.049Z,7.46
2023-03-02T05:44:27.308Z,7.44
2023-03-02T05:46:55.969Z,7.42
2023-03-02T05:49:24.312Z,7.17
2023-03-02T05:51:52.452Z,7.25
2023-03-02T05:54:20.799Z,7.34
2023-03-02T05:56:50.842Z,7.36
2023-03-02T05:59:19.418Z,7.37
2023-03-02T06:01:48.776Z,7.36
2023-03-02T06:04:17.491Z,7.31
2023-03-02T06:06:45.827Z,7.35
2023-03-02T06:09:14.316Z,7.36
2023-03-02T06:11:42.654Z,7.40
2023-03-02T06:14:12.854Z,7.45
2023-03-02T06:16:42.107Z,7.52
2023-03-02T06:19:11.229Z,7.61
2023-03-02T06:21:39.624Z,7.68
2023-03-02T06:24:08.475Z,7.67
2023-03-02T06:26:36.550Z,7.51
2023-03-02T06:29:05.643Z,7.45
2023-03-02T06:31:35.925Z,7.45
2023-03-02T06:34:04.589Z,7.50
2023-03-02T06:36:33.715Z,7.52
2023-03-02T06:39:03.021Z,7.50
2023-03-02T06:41:34.084Z,7.48
2023-03-02T06:44:03.709Z,7.44
2023-03-02T06:46:32.387Z,7.46
2023-03-02T06:49:02.444Z,7.37
2023-03-02T06:51:31.761Z,7.35
2023-03-02T06:54:00.867Z,7.27
2023-03-02T06:56:29.732Z,7.23
2023-03-02T06:58:58.086Z,7.28
2023-03-02T07:01:26.542Z,7.25
2023-03-02T07:03:55.133Z,7.20
2023-03-02T07:06:24.938Z,7.16
2023-03-02T07:08:53.808Z,7.18
2023-03-02T07:11:22.714Z,7.20
2023-03-02T07:13:51.564Z,7.20
2023-03-02T07:16:20.988Z,7.25
2023-03-02T07:18:50.778Z,7.15
2023-03-02T07:21:19.173Z,7.20
2023-03-02T07:23:49.595Z,7.13
2023-03-02T07:26:18.240Z,7.16
2023-03-02T07:28:46.980Z,7.20
2023-03-02T07:31:16.663Z,7.29
2023-03-02T07:33:46.272Z,7.27
2023-03-02T07:36:15.406Z,7.11
2023-03-02T07:38:43.956Z,6.98
2023-03-02T07:41:15.770Z,7.09
2023-03-02T07:43:44.091Z,7.19
2023-03-02T07:46:13.241Z,7.26
2023-03-02T07:48:41.816Z,7.30
2023-03-02T07:51:10.648Z,7.34
2023-03-02T07:53:40.804Z,7.38
2023-03-02T07:56:12.096Z,7.38
2023-03-02T07:58:41.908Z,7.41
2023-03-02T08:01:10.382Z,7.34
2023-03-02T08:03:39.770Z,7.41
2023-03-02T08:06:12.167Z,7.37
2023-03-02T08:08:40.920Z,7.39
2023-03-02T08:11:11.605Z,7.47
2023-03-02T08:13:41.963Z,7.41
2023-03-02T08:16:12.590Z,7.53
2023-03-02T08:18:41.462Z,7.57
2023-03-02T08:21:14.569Z,7.62
2023-03-02T08:23:43.761Z,7.70
2023-03-02T08:26:14.764Z,7.69
2023-03-02T08:28:46.066Z,7.71
2023-03-02T08:31:15.150Z,7.71
2023-03-02T08:33:43.914Z,7.75
2023-03-02T08:36:15.003Z,7.68
2023-03-02T08:38:43.313Z,7.80
2023-03-02T08:41:14.564Z,7.77
2023-03-02T08:43:43.188Z,7.77
2023-03-02T08:46:14.630Z,7.70
2023-03-02T08:48:43.439Z,7.67
2023-03-02T08:51:15.064Z,7.62
2023-03-02T08:53:46.409Z,7.54
2023-03-02T08:56:20.984Z,7.57
2023-03-02T08:58:50.555Z,7.58
2023-03-02T09:01:22.914Z,7.59
2023-03-02T09:03:51.636Z,7.63
2023-03-02T09:06:21.600Z,7.66
2023-03-02T09:08:50.891Z,7.75
2023-03-02T09:11:19.892Z,7.76
2023-03-02T09:13:48.818Z,7.79
2023-03-02T09:16:20.667Z,7.69
2023-03-02T09:18:50.232Z,7.64
2023-03-02T09:21:19.228Z,7.70
2023-03-02T09:23:47.831Z,7.75
2023-03-02T09:26:16.444Z,7.78
2023-03-02T09:28:45.036Z,7.77
2023-03-02T09:31:13.677Z,7.70
2023-03-02T09:33:43.393Z,7.57
2023-03-02T09:36:16.291Z,7.58
2023-03-02T09:38:45.043Z,7.60
2023-03-02T09:41:55.744Z,7.70
2023-03-02T09:44:53.904Z,7.77
2023-03-02T09:47:35.787Z,7.85
2023-03-02T09:50:23.594Z,7.85
2023-03-02T09:53:02.848Z,7.82
2023-03-02T09:55:39.079Z,7.82
2023-03-02T09:58:15.340Z,7.81
2023-03-02T10:00:47.126Z,7.79
2023-03-02T10:03:20.693Z,7.87
2023-03-02T10:05:54.980Z,7.91
2023-03-02T10:08:27.418Z,7.99
2023-03-02T10:11:05.228Z,7.82
2023-03-02T10:13:40.798Z,7.81
2023-03-02T10:16:18.579Z,7.81
2023-03-02T10:18:51.592Z,7.90
2023-03-02T10:21:28.670Z,8.01
2023-03-02T10:24:04.020Z,8.08
2023-03-02T10:26:41.672Z,8.23
2023-03-02T10:29:29.622Z,8.35
2023-03-02T10:32:02.538Z,8.35
2023-03-02T10:34:33.117Z,8.44
2023-03-02T10:37:04.713Z,8.47
2023-03-02T10:39:34.299Z,8.50
2023-03-02T10:42:08.816Z,8.55
2023-03-02T10:44:41.617Z,8.57
2023-03-02T10:47:23.376Z,8.58
2023-03-02T10:49:53.906Z,8.58
2023-03-02T10:52:26.558Z,8.55
2023-03-02T10:55:05.351Z,8.72
2023-03-02T10:57:40.093Z,8.75
2023-03-02T11:00:23.773Z,8.68
2023-03-02T11:02:55.903Z,8.62
2023-03-02T11:05:31.368Z,8.66
2023-03-02T11:08:05.157Z,8.79
2023-03-02T11:10:38.621Z,8.82
2023-03-02T11:13:19.391Z,8.90
2023-03-02T11:15:51.421Z,8.85
2023-03-02T11:18:31.208Z,8.86
2023-03-02T11:21:06.352Z,8.85
2023-03-02T11:23:51.351Z,8.97
2023-03-02T11:26:25.353Z,9.06
2023-03-02T11:29:01.740Z,9.30
2023-03-02T11:31:38.714Z,9.45
2023-03-02T11:34:18.023Z,9.51
2023-03-02T11:36:59.534Z,9.68
2023-03-02T11:39:56.128Z,9.74
2023-03-02T11:42:31.721Z,9.74
2023-03-02T11:45:06.202Z,9.58
2023-03-02T11:47:37.972Z,9.58
2023-03-02T11:50:13.926Z,9.59
2023-03-02T11:52:48.346Z,9.73
2023-03-02T11:55:23.624Z,9.82
2023-03-02T11:57:56.158Z,9.56
2023-03-02T12:00:34.821Z,9.62
2023-03-02T12:03:07.851Z,9.54
2023-03-02T12:05:40.240Z,9.64
2023-03-02T12:08:35.183Z,9.79
2023-03-02T12:11:09.546Z,9.60
2023-03-02T12:13:40.010Z,9.92
2023-03-02T12:16:21.737Z,9.99
2023-03-02T12:18:53.536Z,10.14
2023-03-02T12:21:24.946Z,10.32
2023-03-02T12:24:04.690Z,10.62
2023-03-02T12:26:39.088Z,10.56
2023-03-02T12:29:26.532Z,10.59
2023-03-02T12:31:59.061Z,10.35
2023-03-02T12:34:35.733Z,10.59
2023-03-02T12:37:09.945Z,10.42
2023-03-02T12:40:03.791Z,10.56
2023-03-02T12:42:50.850Z,10.47
2023-03-02T12:45:34.663Z,10.46
2023-03-02T12:48:12.064Z,10.20
2023-03-02T12:50:42.344Z,9.96
2023-03-02T12:53:20.507Z,9.97
2023-03-02T12:55:49.385Z,9.96
2023-03-02T12:58:24.251Z,10.05
2023-03-02T13:00:55.382Z,10.19
2023-03-02T13:03:24.335Z,10.40
2023-03-02T13:05:53.706Z,10.49
2023-03-02T13:08:27.703Z,10.69
2023-03-02T13:10:58.086Z,11.00
2023-03-02T13:13:31.115Z,11.10
2023-03-02T13:16:01.545Z,11.34
2023-03-02T13:18:33.589Z,11.41
2023-03-02T13:21:04.659Z,11.27
2023-03-02T13:23:35.543Z,11.41
2023-03-02T13:26:06.875Z,11.58
2023-03-02T13:28:38.827Z,11.77
2023-03-02T13:31:21.842Z,11.75
2023-03-02T13:33:52.470Z,11.99
2023-03-02T13:36:21.770Z,11.91
2023-03-02T13:38:52.645Z,11.94
2023-03-02T13:41:24.856Z,11.99
2023-03-02T13:43:54.840Z,11.76
2023-03-02T13:46:28.768Z,11.89
2023-03-02T13:49:13.971Z,12.10
2023-03-02T13:51:45.125Z,12.22
2023-03-02T13:54:22.051Z,12.46
2023-03-02T13:56:53.840Z,12.60
2023-03-02T13:59:24.245Z,12.70
2023-03-02T14:01:53.584Z,12.44
2023-03-02T14:04:24.691Z,12.54
2023-03-02T14:06:54.920Z,12.53
2023-03-02T14:09:23.672Z,12.63
2023-03-02T14:11:54.854Z,12.73
2023-03-02T14:14:28.939Z,12.74
2023-03-02T14:16:57.924Z,12.52
2023-03-02T14:19:26.322Z,12.52
2023-03-02T14:21:55.185Z,12.49
2023-03-02T14:24:24.206Z,12.62
2023-03-02T14:26:53.761Z,12.60
2023-03-02T14:29:27.626Z,12.62
2023-03-02T14:31:58.331Z,12.72
2023-03-02T14:34:27.958Z,12.67
2023-03-02T14:36:59.992Z,12.63
2023-03-02T14:39:33.814Z,12.81
2023-03-02T14:42:02.357Z,13.09
2023-03-02T14:44:34.427Z,13.14
2023-03-02T14:47:02.810Z,12.99
2023-03-02T14:49:32.168Z,12.80
2023-03-02T14:52:06.773Z,12.94
2023-03-02T14:54:43.196Z,13.04
2023-03-02T14:57:18.571Z,13.14
2023-03-02T14:59:48.790Z,12.89
2023-03-02T15:02:25.728Z,13.03
2023-03-02T15:04:57.037Z,13.09
2023-03-02T15:07:27.327Z,13.13
2023-03-02T15:09:57.152Z,13.24
2023-03-02T15:12:27.066Z,13.27
2023-03-02T15:14:56.844Z,12.93
2023-03-02T15:17:25.197Z,12.86
2023-03-02T15:19:54.865Z,12.74
2023-03-02T15:22:23.442Z,12.80
2023-03-02T15:24:52.117Z,12.60
2023-03-02T15:27:24.526Z,12.50
2023-03-02T15:29:55.784Z,12.54
2023-03-02T15:32:28.378Z,12.51
2023-03-02T15:34:57.059Z,12.51
2023-03-02T15:37:25.466Z,12.43
2023-03-02T15:39:57.659Z,12.24
2023-03-02T15:42:27.573Z,12.31
2023-03-02T15:44:57.776Z,12.19
2023-03-02T15:47:28.155Z,12.11
2023-03-02T15:49:56.858Z,12.08
2023-03-02T15:52:26.537Z,12.07
2023-03-02T15:54:56.158Z,12.09
2023-03-02T15:57:25.296Z,12.15
2023-03-02T15:59:55.026Z,12.16
2023-03-02T16:02:24.203Z,12.17
2023-03-02T16:04:54.370Z,12.17
2023-03-02T16:07:24.067Z,11.96
2023-03-02T16:09:54.703Z,12.02
2023-03-02T16:12:25.744Z,12.01
2023-03-02T16:14:55.248Z,11.88
2023-03-02T16:17:23.755Z,11.81
2023-03-02T16:19:54.680Z,11.77
2023-03-02T16:22:23.127Z,11.76
2023-03-02T16:24:51.975Z,11.77
2023-03-02T16:27:20.820Z,11.76
2023-03-02T16:29:49.425Z,11.74
2023-03-02T16:32:17.681Z,11.59
2023-03-02T16:34:46.480Z,11.52
2023-03-02T16:37:16.652Z,11.38
2023-03-02T16:39:46.124Z,11.33
2023-03-02T16:42:15.070Z,11.37
2023-03-02T16:44:45.126Z,11.30
2023-03-02T16:47:14.324Z,11.21
2023-03-02T16:49:42.875Z,11.11
2023-03-02T16:52:11.518Z,10.86
2023-03-02T16:54:41.824Z,10.85
2023-03-02T16:57:10.468Z,10.74
2023-03-02T16:59:38.830Z,10.71
2023-03-02T17:02:08.459Z,10.69
2023-03-02T17:04:37.388Z,10.79
2023-03-02T17:07:07.143Z,10.78
2023-03-02T17:09:41.558Z,10.68
2023-03-02T17:12:12.312Z,10.69
2023-03-02T17:14:41.019Z,10.59
2023-03-02T17:17:09.454Z,10.60
2023-03-02T17:19:37.945Z,10.51
2023-03-02T17:22:07.132Z,10.43
2023-03-02T17:24:35.866Z,10.41
2023-03-02T17:27:13.110Z,10.37
2023-03-02T17:29:48.825Z,10.26
2023-03-02T17:32:19.482Z,10.25
2023-03-02T17:34:50.956Z,10.36
2023-03-02T17:37:19.796Z,10.37
2023-03-02T17:39:51.806Z,10.31
2023-03-02T17:42:20.982Z,10.28
2023-03-02T17:44:51.242Z,10.23
2023-03-02T17:47:20.078Z,10.01
2023-03-02T17:49:48.792Z,9.87
2023-03-02T17:52:20.042Z,9.91
2023-03-02T17:54:49.062Z,9.86
2023-03-02T17:57:22.471Z,9.89
2023-03-02T17:59:52.178Z,10.03
2023-03-02T18:02:20.791Z,9.85
2023-03-02T18:04:49.188Z,9.79
2023-03-02T18:07:18.401Z,9.69
2023-03-02T18:09:46.961Z,9.58
2023-03-02T18:12:15.242Z,9.57
2023-03-02T18:14:44.075Z,9.56
2023-03-02T18:17:15.430Z,9.57
2023-03-02T18:19:43.534Z,9.57
2023-03-02T18:22:12.540Z,9.55
2023-03-02T18:24:40.974Z,9.51
2023-03-02T18:27:09.974Z,9.53
2023-03-02T18:29:40.341Z,9.55
2023-03-02T18:32:12.362Z,9.63
2023-03-02T18:34:42.760Z,9.60
2023-03-02T18:37:11.706Z,9.59
2023-03-02T18:39:41.550Z,9.63
2023-03-02T18:42:12.546Z,9.68
2023-03-02T18:44:41.967Z,9.68
2023-03-02T18:47:11.611Z,9.71
2023-03-02T18:49:42.633Z,9.70
2023-03-02T18:52:12.095Z,9.58
2023-03-02T18:54:41.111Z,9.73
2023-03-02T18:57:10.052Z,9.72
2023-03-02T18:59:38.424Z,9.66
2023-03-02T19:02:08.308Z,9.63
2023-03-02T19:04:37.578Z,9.53
2023-03-02T19:07:09.474Z,9.47
2023-03-02T19:09:38.344Z,9.43
2023-03-02T19:12:07.722Z,9.34
2023-03-02T19:14:36.567Z,9.43
2023-03-02T19:17:05.984Z,9.38
2023-03-02T19:19:35.608Z,9.33
2023-03-02T19:22:07.790Z,9.26
2023-03-02T19:24:38.445Z,9.33
2023-03-02T19:27:09.710Z,9.37
2023-03-02T19:29:40.032Z,9.32
2023-03-02T19:32:10.804Z,9.45
2023-03-02T19:34:40.602Z,9.41
2023-03-02T19:37:10.442Z,9.28
2023-03-02T19:39:40.292Z,9.26
2023-03-02T19:42:09.497Z,9.26
2023-03-02T19:44:38.387Z,9.27
2023-03-02T19:47:07.142Z,9.41
2023-03-02T19:49:36.057Z,9.39
2023-03-02T19:52:05.540Z,9.21
2023-03-02T19:54:33.634Z,9.28
2023-03-02T19:57:03.920Z,9.31
2023-03-02T19:59:32.625Z,9.40
2023-03-02T20:02:02.102Z,9.32
2023-03-02T20:04:31.090Z,9.36
2023-03-02T20:07:01.465Z,9.38
2023-03-02T20:09:32.137Z,9.32
2023-03-02T20:12:03.461Z,9.33
2023-03-02T20:14:36.391Z,9.17
2023-03-02T20:17:06.914Z,9.33
2023-03-02T20:19:36.157Z,9.34
2023-03-02T20:22:07.689Z,9.21
2023-03-02T20:24:38.265Z,9.20
2023-03-02T20:27:13.243Z,9.20
2023-03-02T20:29:47.260Z,9.28
2023-03-02T20:32:20.184Z,9.30
2023-03-02T20:34:54.129Z,9.36
2023-03-02T20:37:27.954Z,9.40
2023-03-02T20:39:59.759Z,9.35
2023-03-02T20:42:32.286Z,9.29
2023-03-02T20:45:07.145Z,9.22
2023-03-02T20:47:42.117Z,9.22
2023-03-02T20:50:24.365Z,9.25
2023-03-02T20:52:55.621Z,9.30
2023-03-02T20:55:30.877Z,9.24
2023-03-02T20:58:03.473Z,9.14
2023-03-02T21:00:39.695Z,9.28
2023-03-02T21:03:11.751Z,9.26
2023-03-02T21:05:44.652Z,9.25
2023-03-02T21:08:15.657Z,9.23
2023-03-02T21:10:47.463Z,9.24
2023-03-02T21:13:20.122Z,9.23
2023-03-02T21:15:52.718Z,9.20
2023-03-02T21:18:24.484Z,9.25
2023-03-02T21:20:56.342Z,9.32
2023-03-02T21:23:27.279Z,9.24
2023-03-02T21:25:59.104Z,9.26
2023-03-02T21:28:29.901Z,9.25
2023-03-02T21:31:02.951Z,9.22
2023-03-02T21:33:35.948Z,9.17
2023-03-02T21:36:10.124Z,9.19
2023-03-02T21:38:41.458Z,9.17
2023-03-02T21:41:14.650Z,8.88
2023-03-02T21:43:46.445Z,9.24
2023-03-02T21:46:23.542Z,9.16
2023-03-02T21:48:57.442Z,9.21
2023-03-02T21:51:31.302Z,9.02
2023-03-02T21:54:03.275Z,9.13
2023-03-02T21:56:36.312Z,9.19
2023-03-02T21:59:09.890Z,9.23
2023-03-02T22:01:42.188Z,9.28
2023-03-02T22:04:12.598Z,9.17
2023-03-02T22:06:42.403Z,9.21
2023-03-02T22:09:11.457Z,9.26
2023-03-02T22:11:40.458Z,9.25
2023-03-02T22:14:13.759Z,9.23
2023-03-02T22:16:46.522Z,9.21
2023-03-02T22:19:39.585Z,9.33
2023-03-02T22:22:17.438Z,9.24
2023-03-02T22:24:49.677Z,9.24
2023-03-02T22:27:24.890Z,9.27
2023-03-02T22:29:54.916Z,9.24
2023-03-02T22:32:27.763Z,9.27
2023-03-02T22:34:58.298Z,9.27
2023-03-02T22:37:28.802Z,9.22
2023-03-02T22:40:01.518Z,9.16
2023-03-02T22:42:31.959Z,9.12
2023-03-02T22:45:10.460Z,9.11
2023-03-02T22:47:40.465Z,9.16
2023-03-02T22:50:23.488Z,9.22
2023-03-02T22:52:52.778Z,9.18
2023-03-02T22:55:41.106Z,9.19
2023-03-02T22:58:30.699Z,9.23
2023-03-02T23:01:01.888Z,9.16
2023-03-02T23:03:40.174Z,9.11
2023-03-02T23:06:23.644Z,9.17
2023-03-02T23:08:52.753Z,9.12
2023-03-02T23:11:23.410Z,9.21
2023-03-02T23:13:53.544Z,9.20
2023-03-02T23:16:24.488Z,9.13
2023-03-02T23:18:56.901Z,9.16
2023-03-02T23:21:28.545Z,9.10
2023-03-02T23:23:56.982Z,8.94
2023-03-02T23:26:25.083Z,9.07
2023-03-02T23:28:53.510Z,9.12
2023-03-02T23:31:22.410Z,9.09
2023-03-02T23:33:50.599Z,9.13
2023-03-02T23:36:21.087Z,9.06
2023-03-02T23:38:49.851Z,9.03
2023-03-02T23:41:18.485Z,8.94
2023-03-02T23:43:47.146Z,9.03
2023-03-02T23:46:15.391Z,8.97
2023-03-02T23:48:44.528Z,8.95
2023-03-02T23:51:12.783Z,9.03
2023-03-02T23:53:42.676Z,8.96
2023-03-02T23:56:11.469Z,8.91
2023-03-02T23:58:40.004Z,8.86
